createdAt,value
2023-05-05T00:00:12.085Z,139.83
2023-05-05T00:01:12.039Z,139.69
2023-05-05T00:02:12.087Z,134.64
2023-05-05T00:03:12.096Z,134.56
2023-05-05T00:04:12.068Z,136.19
2023-05-05T00:05:12.080Z,137.20
2023-05-05T00:06:12.091Z,136.80
2023-05-05T00:07:12.324Z,137.20
2023-05-05T00:08:12.131Z,134.13
2023-05-05T00:09:12.103Z,135.64
2023-05-05T00:10:12.141Z,134.91
2023-05-05T00:11:12.113Z,132.75
2023-05-05T00:12:12.154Z,134.53
2023-05-05T00:13:12.190Z,135.96
2023-05-05T00:14:12.144Z,132.94
2023-05-05T00:15:12.192Z,132.09
2023-05-05T00:16:12.178Z,134.41
2023-05-05T00:17:12.321Z,132.30
2023-05-05T00:18:12.167Z,129.40
2023-05-05T00:19:12.202Z,130.84
2023-05-05T00:20:12.174Z,132.52
2023-05-05T00:21:12.228Z,129.51
2023-05-05T00:22:12.189Z,130.44
2023-05-05T00:23:12.215Z,131.24
2023-05-05T00:24:12.220Z,131.39
2023-05-05T00:25:12.203Z,132.54
2023-05-05T00:26:12.228Z,132.70
2023-05-05T00:27:12.265Z,132.08
2023-05-05T00:28:12.312Z,131.04
2023-05-05T00:29:12.318Z,129.20
2023-05-05T00:30:12.330Z,129.55
2023-05-05T00:31:12.354Z,130.05
2023-05-05T00:32:12.414Z,128.10
2023-05-05T00:33:12.362Z,128.53
2023-05-05T00:34:12.394Z,129.07
2023-05-05T00:35:12.434Z,129.15
2023-05-05T00:36:12.431Z,129.06
2023-05-05T00:37:12.443Z,129.47
2023-05-05T00:38:12.462Z,126.22
2023-05-05T00:39:12.501Z,127.59
2023-05-05T00:40:12.503Z,129.19
2023-05-05T00:41:12.468Z,126.98
2023-05-05T00:42:12.851Z,124.14
2023-05-05T00:43:12.475Z,124.75
2023-05-05T00:44:12.504Z,124.66
2023-05-05T00:45:12.536Z,127.06
2023-05-05T00:46:12.571Z,122.02
2023-05-05T00:47:12.861Z,125.07
2023-05-05T00:48:12.604Z,128.00
2023-05-05T00:49:12.613Z,124.73
2023-05-05T00:50:12.615Z,125.59
2023-05-05T00:51:12.615Z,121.65
2023-05-05T00:52:12.649Z,125.19
2023-05-05T00:53:12.693Z,122.64
2023-05-05T00:54:12.705Z,125.20
2023-05-05T00:55:12.752Z,124.47
2023-05-05T00:56:12.734Z,120.18
2023-05-05T00:57:12.723Z,122.77
2023-05-05T00:58:12.761Z,122.58
2023-05-05T00:59:12.773Z,123.59
2023-05-05T01:00:12.820Z,123.92
2023-05-05T01:01:12.798Z,122.31
2023-05-05T01:02:12.820Z,124.21
2023-05-05T01:03:12.919Z,122.63
2023-05-05T01:04:12.865Z,120.99
2023-05-05T01:05:12.900Z,121.68
2023-05-05T01:06:12.877Z,121.12
2023-05-05T01:07:12.919Z,121.33
2023-05-05T01:08:12.945Z,124.42
2023-05-05T01:09:12.930Z,120.96
2023-05-05T01:10:20.470Z,122.10
2023-05-05T01:11:13.973Z,122.20
2023-05-05T01:12:12.965Z,122.21
2023-05-05T01:13:13.084Z,121.87
2023-05-05T01:14:12.971Z,121.34
2023-05-05T01:15:12.956Z,119.40
2023-05-05T01:16:13.019Z,122.06
2023-05-05T01:17:12.947Z,119.80
2023-05-05T01:18:12.939Z,118.78
2023-05-05T01:19:12.912Z,118.90
2023-05-05T01:20:12.912Z,118.99
2023-05-05T01:21:12.882Z,115.83
2023-05-05T01:22:12.922Z,117.88
2023-05-05T01:23:12.873Z,118.12
2023-05-05T01:24:12.904Z,115.52
2023-05-05T01:25:12.883Z,117.73
2023-05-05T01:26:12.895Z,115.80
2023-05-05T01:27:12.862Z,115.59
2023-05-05T01:28:12.861Z,114.62
2023-05-05T01:29:12.825Z,118.93
2023-05-05T01:30:12.846Z,116.92
2023-05-05T01:31:12.844Z,114.70
2023-05-05T01:32:12.799Z,116.01
2023-05-05T01:33:12.809Z,113.92
2023-05-05T01:34:12.833Z,114.34
2023-05-05T01:35:12.851Z,115.25
2023-05-05T01:36:12.857Z,118.44
2023-05-05T01:37:12.866Z,114.89
2023-05-05T01:38:12.840Z,112.30
2023-05-05T01:39:12.898Z,113.50
2023-05-05T01:40:12.893Z,112.28
2023-05-05T01:41:12.973Z,113.82
2023-05-05T01:42:12.911Z,111.86
2023-05-05T01:43:12.921Z,109.98
2023-05-05T01:44:12.915Z,113.39
2023-05-05T01:45:12.949Z,110.94
2023-05-05T01:46:13.011Z,114.69
2023-05-05T01:47:12.973Z,110.45
2023-05-05T01:48:13.006Z,111.17
2023-05-05T01:49:12.986Z,112.51
2023-05-05T01:50:12.994Z,112.76
2023-05-05T01:51:13.010Z,111.42
2023-05-05T01:52:13.011Z,111.54
2023-05-05T01:53:13.012Z,114.34
2023-05-05T01:54:12.975Z,112.37
2023-05-05T01:55:13.008Z,110.79
2023-05-05T01:56:12.999Z,110.93
2023-05-05T01:57:13.000Z,111.08
2023-05-05T01:58:13.035Z,110.79
2023-05-05T01:59:13.012Z,108.15
2023-05-05T02:00:13.059Z,111.32
2023-05-05T02:01:13.107Z,111.10
2023-05-05T02:02:13.114Z,110.39
2023-05-05T02:03:13.199Z,112.05
2023-05-05T02:04:13.084Z,110.66
2023-05-05T02:05:13.108Z,105.74
2023-05-05T02:06:13.130Z,110.18
2023-05-05T02:07:13.119Z,110.36
2023-05-05T02:08:13.392Z,110.83
2023-05-05T02:09:13.167Z,108.31
2023-05-05T02:10:13.143Z,111.92
2023-05-05T02:11:13.148Z,108.85
2023-05-05T02:12:13.188Z,108.33
2023-05-05T02:13:13.396Z,106.27
2023-05-05T02:14:13.294Z,103.91
2023-05-05T02:15:13.219Z,107.86
2023-05-05T02:16:13.391Z,103.47
2023-05-05T02:17:13.268Z,105.62
2023-05-05T02:18:13.260Z,104.01
2023-05-05T02:19:13.224Z,109.23
2023-05-05T02:20:13.237Z,105.77
2023-05-05T02:21:13.246Z,106.87
2023-05-05T02:22:13.267Z,106.89
2023-05-05T02:23:13.265Z,104.74
2023-05-05T02:24:13.261Z,103.70
2023-05-05T02:25:13.284Z,108.86
2023-05-05T02:26:13.321Z,103.20
2023-05-05T02:27:13.303Z,105.18
2023-05-05T02:28:13.412Z,101.54
2023-05-05T02:29:13.334Z,104.22
2023-05-05T02:30:13.364Z,106.32
2023-05-05T02:31:13.418Z,105.98
2023-05-05T02:32:13.326Z,105.49
2023-05-05T02:33:13.360Z,105.09
2023-05-05T02:34:13.373Z,105.40
2023-05-05T02:35:13.387Z,102.51
2023-05-05T02:36:13.384Z,104.17
2023-05-05T02:37:13.360Z,104.28
2023-05-05T02:38:13.372Z,103.38
2023-05-05T02:39:13.420Z,99.84
2023-05-05T02:40:13.422Z,104.79
2023-05-05T02:41:13.437Z,102.87
2023-05-05T02:42:13.431Z,103.83
2023-05-05T02:43:13.485Z,101.72
2023-05-05T02:44:13.456Z,100.80
2023-05-05T02:45:13.481Z,100.82
2023-05-05T02:46:13.471Z,101.91
2023-05-05T02:47:13.469Z,100.41
2023-05-05T02:48:13.503Z,100.52
2023-05-05T02:49:13.467Z,103.32
2023-05-05T02:50:13.504Z,104.19
2023-05-05T02:51:13.555Z,101.40
2023-05-05T02:52:13.532Z,100.22
2023-05-05T02:53:13.549Z,98.24
2023-05-05T02:54:13.535Z,103.80
2023-05-05T02:55:13.566Z,97.77
2023-05-05T02:56:13.586Z,100.47
2023-05-05T02:57:13.599Z,98.52
2023-05-05T02:58:13.639Z,98.18
2023-05-05T02:59:15.966Z,100.08
2023-05-05T03:00:13.646Z,100.83
2023-05-05T03:01:13.659Z,101.06
2023-05-05T03:02:13.593Z,99.22
2023-05-05T03:03:13.660Z,100.28
2023-05-05T03:04:13.589Z,98.34
2023-05-05T03:05:13.560Z,98.11
2023-05-05T03:06:13.609Z,99.71
2023-05-05T03:07:13.607Z,100.01
2023-05-05T03:08:13.548Z,99.56
2023-05-05T03:09:13.549Z,96.97
2023-05-05T03:10:13.559Z,99.39
2023-05-05T03:11:13.560Z,96.90
2023-05-05T03:12:13.559Z,97.91
2023-05-05T03:13:13.649Z,97.90
2023-05-05T03:14:13.545Z,98.74
2023-05-05T03:15:13.533Z,99.21
2023-05-05T03:16:13.501Z,96.62
2023-05-05T03:17:13.532Z,95.54
2023-05-05T03:18:13.509Z,94.65
2023-05-05T03:19:13.484Z,93.12
2023-05-05T03:20:13.484Z,96.04
2023-05-05T03:21:13.499Z,96.82
2023-05-05T03:22:13.503Z,95.13
2023-05-05T03:23:13.484Z,90.36
2023-05-05T03:24:13.450Z,96.75
2023-05-05T03:25:13.430Z,93.11
2023-05-05T03:26:13.449Z,94.08
2023-05-05T03:27:13.429Z,96.50
2023-05-05T03:28:13.441Z,95.82
2023-05-05T03:29:13.403Z,92.86
2023-05-05T03:30:13.395Z,95.58
2023-05-05T03:31:13.400Z,94.82
2023-05-05T03:32:13.429Z,93.30
2023-05-05T03:33:13.392Z,93.33
2023-05-05T03:34:13.382Z,94.01
2023-05-05T03:35:13.412Z,92.40
2023-05-05T03:36:13.401Z,93.75
2023-05-05T03:37:13.428Z,96.16
2023-05-05T03:38:13.376Z,93.54
2023-05-05T03:39:13.366Z,91.75
2023-05-05T03:40:13.361Z,90.96
2023-05-05T03:41:13.375Z,92.24
2023-05-05T03:42:13.338Z,91.43
2023-05-05T03:43:13.333Z,90.69
2023-05-05T03:44:13.325Z,89.48
2023-05-05T03:45:13.313Z,88.71
2023-05-05T03:46:13.315Z,91.18
2023-05-05T03:47:13.277Z,89.29
2023-05-05T03:48:13.267Z,88.26
2023-05-05T03:49:13.294Z,89.83
2023-05-05T03:50:13.282Z,86.02
2023-05-05T03:51:13.278Z,88.30
2023-05-05T03:52:14.977Z,88.71
2023-05-05T03:53:13.258Z,89.16
2023-05-05T03:54:13.251Z,91.63
2023-05-05T03:55:13.236Z,88.83
2023-05-05T03:56:13.225Z,87.48
2023-05-05T03:57:13.236Z,89.73
2023-05-05T03:58:13.243Z,86.79
2023-05-05T03:59:13.230Z,88.64
2023-05-05T04:00:13.213Z,88.35
2023-05-05T04:01:13.194Z,85.69
2023-05-05T04:02:13.203Z,85.49
2023-05-05T04:03:13.359Z,89.13
2023-05-05T04:04:13.259Z,90.04
2023-05-05T04:05:13.180Z,85.96
2023-05-05T04:06:13.156Z,85.09
2023-05-05T04:07:13.229Z,85.43
2023-05-05T04:08:13.450Z,85.98
2023-05-05T04:09:13.133Z,84.69
2023-05-05T04:10:13.162Z,85.62
2023-05-05T04:11:13.161Z,84.72
2023-05-05T04:12:13.143Z,85.08
2023-05-05T04:13:13.217Z,81.93
2023-05-05T04:14:13.126Z,83.91
2023-05-05T04:15:13.116Z,84.86
2023-05-05T04:16:13.151Z,86.80
2023-05-05T04:17:13.105Z,86.19
2023-05-05T04:18:13.869Z,85.55
2023-05-05T04:19:13.106Z,85.28
2023-05-05T04:20:13.102Z,83.58
2023-05-05T04:21:13.107Z,86.99
2023-05-05T04:22:13.059Z,81.44
2023-05-05T04:23:13.457Z,86.07
2023-05-05T04:24:13.073Z,83.39
2023-05-05T04:25:13.073Z,81.62
2023-05-05T04:26:13.051Z,82.11
2023-05-05T04:27:13.071Z,86.04
2023-05-05T04:28:13.074Z,82.94
2023-05-05T04:29:13.106Z,84.46
2023-05-05T04:30:13.182Z,82.93
2023-05-05T04:31:13.158Z,82.70
2023-05-05T04:32:13.117Z,83.16
2023-05-05T04:33:13.150Z,83.46
2023-05-05T04:34:13.112Z,83.09
2023-05-05T04:35:13.216Z,80.14
2023-05-05T04:36:13.141Z,78.90
2023-05-05T04:37:13.188Z,78.28
2023-05-05T04:38:13.230Z,81.52
2023-05-05T04:39:13.234Z,80.82
2023-05-05T04:40:13.249Z,79.58
2023-05-05T04:41:13.209Z,79.63
2023-05-05T04:42:13.240Z,80.46
2023-05-05T04:43:13.264Z,81.29
2023-05-05T04:44:13.279Z,80.42
2023-05-05T04:45:13.244Z,80.38
2023-05-05T04:46:13.272Z,83.36
2023-05-05T04:47:14.656Z,79.39
2023-05-05T04:48:13.317Z,78.48
2023-05-05T04:49:13.344Z,78.25
2023-05-05T04:50:13.375Z,81.83
2023-05-05T04:51:13.344Z,81.38
2023-05-05T04:52:13.379Z,80.85
2023-05-05T04:53:13.399Z,80.08
2023-05-05T04:54:13.407Z,78.30
2023-05-05T04:55:13.456Z,79.07
2023-05-05T04:56:13.494Z,82.48
2023-05-05T04:57:13.491Z,78.53
2023-05-05T04:58:13.535Z,79.87
2023-05-05T04:59:13.540Z,78.06
2023-05-05T05:00:13.569Z,79.88
2023-05-05T05:01:13.553Z,78.14
2023-05-05T05:02:13.677Z,78.25
2023-05-05T05:03:13.620Z,75.66
2023-05-05T05:04:13.578Z,75.36
2023-05-05T05:05:13.615Z,72.77
2023-05-05T05:06:13.632Z,79.62
2023-05-05T05:07:13.638Z,76.45
2023-05-05T05:08:13.640Z,76.64
2023-05-05T05:09:13.645Z,78.62
2023-05-05T05:10:13.657Z,78.89
2023-05-05T05:11:13.668Z,76.59
2023-05-05T05:12:13.690Z,76.94
2023-05-05T05:13:13.800Z,77.73
2023-05-05T05:14:13.721Z,77.49
2023-05-05T05:15:13.762Z,75.47
2023-05-05T05:16:13.807Z,78.33
2023-05-05T05:17:13.770Z,75.70
2023-05-05T05:18:13.820Z,78.00
2023-05-05T05:19:13.772Z,75.93
2023-05-05T05:20:13.776Z,75.23
2023-05-05T05:21:13.849Z,76.93
2023-05-05T05:22:13.833Z,73.21
2023-05-05T05:23:13.858Z,73.99
2023-05-05T05:24:13.838Z,73.22
2023-05-05T05:25:13.876Z,72.48
2023-05-05T05:26:13.880Z,75.59
2023-05-05T05:27:13.887Z,71.89
2023-05-05T05:28:13.894Z,74.18
2023-05-05T05:29:13.925Z,74.91
2023-05-05T05:30:13.937Z,74.54
2023-05-05T05:31:13.983Z,74.90
2023-05-05T05:32:13.996Z,74.62
2023-05-05T05:33:13.984Z,75.80
2023-05-05T05:34:14.024Z,73.97
2023-05-05T05:35:14.031Z,73.64
2023-05-05T05:36:14.004Z,73.20
2023-05-05T05:37:14.041Z,70.99
2023-05-05T05:38:14.470Z,73.05
2023-05-05T05:39:14.069Z,72.21
2023-05-05T05:40:14.028Z,73.04
2023-05-05T05:41:14.068Z,73.80
2023-05-05T05:42:14.086Z,73.74
2023-05-05T05:43:14.089Z,70.98
2023-05-05T05:44:14.098Z,72.81
2023-05-05T05:45:14.130Z,71.42
2023-05-05T05:46:14.256Z,73.81
2023-05-05T05:47:14.165Z,75.30
2023-05-05T05:48:14.175Z,74.30
2023-05-05T05:49:14.312Z,71.39
2023-05-05T05:50:14.177Z,71.28
2023-05-05T05:51:14.145Z,72.12
2023-05-05T05:52:14.149Z,71.54
2023-05-05T05:53:14.177Z,70.19
2023-05-05T05:54:14.168Z,69.02
2023-05-05T05:55:14.184Z,72.17
2023-05-05T05:56:14.987Z,72.19
2023-05-05T05:57:14.191Z,71.95
2023-05-05T05:58:14.505Z,70.03
2023-05-05T05:59:14.194Z,69.73
2023-05-05T06:00:14.207Z,69.29
2023-05-05T06:01:14.217Z,70.04
2023-05-05T06:02:14.351Z,70.17
2023-05-05T06:03:14.814Z,72.01
2023-05-05T06:04:14.250Z,66.52
2023-05-05T06:05:14.242Z,66.16
2023-05-05T06:06:14.261Z,70.09
2023-05-05T06:07:14.249Z,77.37
2023-05-05T06:08:14.312Z,82.53
2023-05-05T06:09:14.589Z,73.25
2023-05-05T06:10:26.590Z,76.68
2023-05-05T06:11:15.384Z,76.47
2023-05-05T06:12:14.388Z,64.91
2023-05-05T06:13:14.381Z,57.74
2023-05-05T06:14:14.505Z,64.60
2023-05-05T06:15:14.342Z,70.08
2023-05-05T06:16:14.329Z,76.52
2023-05-05T06:17:14.316Z,84.99
2023-05-05T06:18:14.360Z,86.49
2023-05-05T06:19:14.511Z,84.01
2023-05-05T06:20:14.325Z,55.16
2023-05-05T06:21:14.375Z,81.91
2023-05-05T06:22:14.413Z,102.45
2023-05-05T06:23:14.482Z,91.15
2023-05-05T06:24:14.551Z,84.24
2023-05-05T06:25:14.588Z,88.93
2023-05-05T06:26:14.631Z,83.29
2023-05-05T06:27:14.665Z,85.78
2023-05-05T06:28:14.717Z,79.65
2023-05-05T06:29:14.737Z,81.09
2023-05-05T06:30:14.827Z,86.16
2023-05-05T06:31:14.892Z,75.96
2023-05-05T06:32:14.894Z,78.11
2023-05-05T06:33:14.957Z,75.37
2023-05-05T06:34:15.005Z,77.62
2023-05-05T06:35:15.009Z,79.94
2023-05-05T06:36:15.060Z,88.16
2023-05-05T06:37:15.061Z,88.28
2023-05-05T06:38:15.139Z,87.78
2023-05-05T06:39:16.226Z,88.61
2023-05-05T06:40:15.164Z,88.19
2023-05-05T06:41:15.225Z,75.56
2023-05-05T06:42:15.220Z,41.01
2023-05-05T06:43:15.259Z,47.52
2023-05-05T06:44:15.313Z,66.86
2023-05-05T06:45:15.353Z,66.30
2023-05-05T06:46:15.411Z,63.58
2023-05-05T06:47:15.399Z,70.84
2023-05-05T06:48:15.437Z,72.81
2023-05-05T06:49:15.449Z,65.37
2023-05-05T06:50:15.492Z,62.19
2023-05-05T06:51:15.561Z,83.07
2023-05-05T06:52:15.546Z,77.47
2023-05-05T06:53:15.562Z,240.99
2023-05-05T06:54:15.647Z,42.14
2023-05-05T06:55:15.675Z,117.39
2023-05-05T06:56:15.720Z,107.20
2023-05-05T06:57:15.763Z,101.66
2023-05-05T06:58:15.839Z,102.30
2023-05-05T06:59:15.926Z,71.23
2023-05-05T07:00:15.918Z,84.87
2023-05-05T07:01:15.962Z,85.61
2023-05-05T07:02:15.996Z,87.58
2023-05-05T07:03:16.289Z,84.51
2023-05-05T07:04:16.180Z,100.65
2023-05-05T07:05:16.072Z,129.80
2023-05-05T07:06:16.083Z,124.55
2023-05-05T07:07:16.114Z,123.18
2023-05-05T07:08:16.108Z,120.83
2023-05-05T07:09:17.221Z,104.23
2023-05-05T07:10:16.145Z,109.94
2023-05-05T07:11:16.145Z,124.26
2023-05-05T07:12:16.158Z,125.51
2023-05-05T07:13:16.228Z,107.27
2023-05-05T07:14:16.171Z,116.52
2023-05-05T07:15:27.450Z,100.05
2023-05-05T07:16:17.196Z,100.65
2023-05-05T07:17:16.159Z,101.07
2023-05-05T07:18:16.165Z,104.76
2023-05-05T07:19:16.279Z,111.44
2023-05-05T07:20:16.154Z,119.17
2023-05-05T07:21:16.156Z,120.99
2023-05-05T07:22:16.139Z,120.75
2023-05-05T07:23:16.214Z,118.49
2023-05-05T07:24:16.115Z,114.33
2023-05-05T07:25:16.117Z,118.41
2023-05-05T07:26:16.091Z,124.56
2023-05-05T07:27:16.096Z,128.33
2023-05-05T07:28:16.088Z,126.08
2023-05-05T07:29:16.077Z,85.74
2023-05-05T07:30:18.419Z,107.88
2023-05-05T07:31:16.189Z,92.49
2023-05-05T07:32:16.180Z,109.36
2023-05-05T07:33:16.203Z,127.47
2023-05-05T07:34:16.230Z,124.01
2023-05-05T07:35:16.359Z,112.54
2023-05-05T07:36:16.298Z,135.77
2023-05-05T07:37:16.357Z,158.69
2023-05-05T07:38:16.396Z,158.71
2023-05-05T07:39:16.446Z,156.99
2023-05-05T07:40:16.503Z,130.36
2023-05-05T07:41:16.561Z,54.97
2023-05-05T07:42:16.620Z,114.96
2023-05-05T07:43:16.688Z,91.19
2023-05-05T07:44:16.737Z,134.60
2023-05-05T07:45:16.798Z,133.62
2023-05-05T07:46:16.886Z,141.83
2023-05-05T07:47:16.907Z,148.62
2023-05-05T07:48:16.968Z,149.41
2023-05-05T07:49:17.024Z,160.42
2023-05-05T07:50:17.094Z,173.39
2023-05-05T07:51:17.179Z,188.23
2023-05-05T07:52:17.198Z,199.80
2023-05-05T07:53:17.212Z,209.22
2023-05-05T07:54:17.259Z,212.06
2023-05-05T07:55:17.328Z,221.77
2023-05-05T07:56:17.388Z,225.95
2023-05-05T07:57:17.394Z,232.15
2023-05-05T07:58:17.467Z,235.25
2023-05-05T07:59:17.511Z,238.30
2023-05-05T08:00:17.549Z,240.59
2023-05-05T08:01:17.590Z,244.99
2023-05-05T08:02:17.653Z,248.54
2023-05-05T08:03:17.706Z,249.46
2023-05-05T08:04:18.097Z,250.00
2023-05-05T08:05:17.747Z,250.00
2023-05-05T08:06:17.798Z,250.00
2023-05-05T08:07:17.939Z,248.80
2023-05-05T08:08:17.842Z,249.99
2023-05-05T08:09:17.892Z,249.10
2023-05-05T08:10:17.891Z,249.97
2023-05-05T08:11:17.929Z,250.00
2023-05-05T08:12:17.967Z,249.01
2023-05-05T08:13:18.087Z,249.19
2023-05-05T08:14:18.056Z,236.57
2023-05-05T08:15:18.036Z,233.65
2023-05-05T08:16:18.098Z,231.43
2023-05-05T08:17:18.087Z,232.71
2023-05-05T08:18:18.151Z,229.30
2023-05-05T08:19:28.288Z,232.07
2023-05-05T08:20:19.119Z,232.10
2023-05-05T08:21:18.117Z,225.00
2023-05-05T08:22:18.123Z,215.37
2023-05-05T08:23:18.234Z,215.93
2023-05-05T08:24:18.559Z,211.25
2023-05-05T08:25:18.098Z,211.85
2023-05-05T08:26:18.119Z,207.47
2023-05-05T08:27:18.090Z,205.90
2023-05-05T08:28:18.091Z,206.22
2023-05-05T08:29:18.583Z,199.18
2023-05-05T08:30:18.085Z,200.90
2023-05-05T08:31:18.089Z,197.89
2023-05-05T08:32:18.051Z,197.41
2023-05-05T08:33:18.143Z,196.28
2023-05-05T08:34:18.043Z,197.88
2023-05-05T08:35:18.095Z,190.11
2023-05-05T08:36:18.047Z,189.51
2023-05-05T08:37:18.014Z,185.71
2023-05-05T08:38:17.988Z,190.19
2023-05-05T08:39:18.304Z,185.77
2023-05-05T08:40:18.110Z,184.91
2023-05-05T08:41:18.087Z,174.27
2023-05-05T08:42:29.301Z,175.87
2023-05-05T08:43:19.096Z,176.12
2023-05-05T08:44:18.109Z,176.24
2023-05-05T08:45:18.077Z,176.36
2023-05-05T08:46:18.192Z,179.62
2023-05-05T08:47:18.067Z,182.21
2023-05-05T08:48:18.031Z,186.85
2023-05-05T08:49:18.069Z,193.82
2023-05-05T08:50:18.084Z,192.10
2023-05-05T08:51:18.033Z,196.11
2023-05-05T08:52:18.121Z,194.88
2023-05-05T08:53:18.039Z,194.71
2023-05-05T08:54:18.109Z,197.80
2023-05-05T08:55:18.078Z,197.50
2023-05-05T08:56:17.973Z,200.29
2023-05-05T08:57:17.998Z,198.48
2023-05-05T08:58:18.020Z,196.83
2023-05-05T08:59:17.971Z,202.83
2023-05-05T09:00:17.964Z,200.50
2023-05-05T09:01:18.017Z,211.13
2023-05-05T09:02:18.007Z,210.69
2023-05-05T09:03:18.032Z,216.62
2023-05-05T09:04:17.976Z,214.45
2023-05-05T09:05:17.962Z,216.55
2023-05-05T09:06:17.990Z,217.55
2023-05-05T09:07:18.094Z,223.36
2023-05-05T09:08:18.133Z,239.10
2023-05-05T09:09:18.140Z,242.09
2023-05-05T09:10:18.128Z,240.29
2023-05-05T09:11:18.268Z,242.93
2023-05-05T09:12:18.165Z,233.94
2023-05-05T09:13:18.245Z,230.89
2023-05-05T09:14:18.188Z,236.40
2023-05-05T09:15:18.178Z,234.45
2023-05-05T09:16:18.215Z,237.07
2023-05-05T09:17:18.176Z,245.40
2023-05-05T09:18:18.242Z,246.86
2023-05-05T09:19:18.582Z,241.45
2023-05-05T09:20:18.206Z,245.29
2023-05-05T09:21:18.233Z,237.70
2023-05-05T09:22:18.220Z,247.41
2023-05-05T09:23:18.244Z,241.72
2023-05-05T09:24:18.248Z,246.19
2023-05-05T09:25:18.237Z,247.45
2023-05-05T09:26:18.225Z,247.74
2023-05-05T09:27:18.302Z,246.60
2023-05-05T09:28:18.258Z,246.88
2023-05-05T09:29:18.222Z,243.21
2023-05-05T09:30:18.265Z,249.30
2023-05-05T09:31:18.271Z,250.01
2023-05-05T09:32:18.230Z,248.77
2023-05-05T09:33:18.270Z,246.80
2023-05-05T09:34:18.263Z,246.32
2023-05-05T09:35:18.306Z,247.32
2023-05-05T09:36:18.308Z,250.00
2023-05-05T09:37:18.310Z,249.07
2023-05-05T09:38:18.327Z,250.00
2023-05-05T09:39:18.600Z,249.38
2023-05-05T09:40:18.385Z,249.48
2023-05-05T09:41:18.364Z,246.65
2023-05-05T09:42:18.410Z,246.08
2023-05-05T09:43:18.474Z,251.10
2023-05-05T09:44:18.412Z,249.54
2023-05-05T09:45:18.622Z,246.62
2023-05-05T09:46:18.516Z,245.82
2023-05-05T09:47:28.945Z,249.84
2023-05-05T09:48:19.458Z,249.94
2023-05-05T09:49:18.445Z,249.98
2023-05-05T09:50:18.831Z,248.72
2023-05-05T09:51:18.404Z,250.81
2023-05-05T09:52:18.411Z,250.44
2023-05-05T09:53:18.391Z,248.30
2023-05-05T09:54:19.505Z,246.89
2023-05-05T09:55:18.423Z,248.72
2023-05-05T09:56:18.376Z,245.18
2023-05-05T09:57:18.416Z,249.89
2023-05-05T09:58:18.537Z,248.95
2023-05-05T09:59:18.588Z,247.82
2023-05-05T10:00:18.583Z,246.75
2023-05-05T10:01:18.616Z,246.28
2023-05-05T10:02:18.648Z,248.28
2023-05-05T10:03:18.694Z,243.28
2023-05-05T10:04:18.748Z,246.62
2023-05-05T10:05:18.927Z,246.58
2023-05-05T10:06:18.820Z,247.25
2023-05-05T10:07:18.845Z,246.22
2023-05-05T10:08:18.909Z,247.99
2023-05-05T10:09:18.967Z,246.98
2023-05-05T10:10:18.992Z,248.61
2023-05-05T10:11:19.025Z,247.12
2023-05-05T10:12:19.065Z,247.72
2023-05-05T10:13:19.170Z,249.85
2023-05-05T10:14:19.180Z,250.24
2023-05-05T10:15:19.314Z,249.11
2023-05-05T10:16:19.288Z,247.30
2023-05-05T10:17:19.359Z,245.12
2023-05-05T10:18:19.412Z,243.70
2023-05-05T10:19:19.589Z,242.17
2023-05-05T10:20:19.507Z,241.79
2023-05-05T10:21:19.550Z,237.89
2023-05-05T10:22:19.615Z,240.76
2023-05-05T10:23:19.662Z,241.56
2023-05-05T10:24:19.678Z,241.94
2023-05-05T10:25:19.784Z,240.87
2023-05-05T10:26:19.857Z,240.00
2023-05-05T10:27:19.908Z,240.04
2023-05-05T10:28:19.927Z,239.35
2023-05-05T10:29:20.009Z,241.89
2023-05-05T10:30:20.058Z,243.52
2023-05-05T10:31:25.030Z,241.85
2023-05-05T10:32:46.517Z,242.04
2023-05-05T10:34:20.086Z,242.22
2023-05-05T10:35:20.083Z,242.96
2023-05-05T10:36:20.074Z,244.43
2023-05-05T10:37:20.089Z,245.38
2023-05-05T10:38:20.060Z,246.06
2023-05-05T10:39:20.065Z,246.69
2023-05-05T10:40:20.148Z,248.82
2023-05-05T10:41:20.071Z,246.77
2023-05-05T10:42:20.036Z,250.00
2023-05-05T10:43:20.024Z,250.00
2023-05-05T10:44:20.016Z,245.00
2023-05-05T10:45:20.124Z,245.64
2023-05-05T10:46:20.047Z,241.91
2023-05-05T10:47:20.065Z,242.75
2023-05-05T10:48:20.017Z,240.71
2023-05-05T10:49:19.969Z,238.72
2023-05-05T10:50:20.159Z,236.38
2023-05-05T10:51:30.937Z,234.24
2023-05-05T10:52:20.970Z,234.47
2023-05-05T10:53:19.973Z,234.76
2023-05-05T10:54:19.980Z,231.46
2023-05-05T10:55:20.132Z,231.61
2023-05-05T10:56:19.998Z,232.09
2023-05-05T10:57:19.946Z,227.65
2023-05-05T10:58:19.903Z,226.35
2023-05-05T10:59:19.922Z,227.39
2023-05-05T11:00:20.115Z,227.80
2023-05-05T11:01:19.893Z,228.07
2023-05-05T11:02:19.929Z,226.95
2023-05-05T11:03:20.007Z,224.76
2023-05-05T11:04:19.891Z,227.05
2023-05-05T11:05:20.138Z,225.59
2023-05-05T11:06:19.875Z,223.94
2023-05-05T11:07:19.866Z,226.17
2023-05-05T11:08:19.829Z,225.71
2023-05-05T11:09:19.883Z,225.60
2023-05-05T11:10:20.111Z,225.76
2023-05-05T11:11:19.850Z,225.55
2023-05-05T11:12:19.847Z,225.72
2023-05-05T11:13:19.997Z,225.35
2023-05-05T11:14:19.858Z,223.11
2023-05-05T11:15:20.136Z,224.61
2023-05-05T11:16:19.934Z,225.39
2023-05-05T11:17:19.904Z,223.79
2023-05-05T11:18:19.884Z,225.26
2023-05-05T11:19:20.097Z,226.82
2023-05-05T11:20:20.124Z,227.18
2023-05-05T11:21:19.914Z,226.46
2023-05-05T11:22:19.896Z,223.92
2023-05-05T11:23:19.892Z,226.34
2023-05-05T11:24:19.916Z,227.04
2023-05-05T11:25:20.130Z,227.01
2023-05-05T11:26:19.893Z,228.32
2023-05-05T11:27:19.899Z,229.95
2023-05-05T11:28:19.917Z,230.34
2023-05-05T11:29:19.920Z,228.91
2023-05-05T11:30:19.919Z,228.33
2023-05-05T11:31:20.084Z,229.36
2023-05-05T11:32:19.946Z,228.33
2023-05-05T11:33:19.898Z,227.74
2023-05-05T11:34:19.898Z,228.65
2023-05-05T11:35:20.257Z,227.82
2023-05-05T11:36:19.932Z,227.79
2023-05-05T11:37:19.921Z,228.36
2023-05-05T11:38:19.919Z,221.67
2023-05-05T11:39:19.937Z,222.00
2023-05-05T11:40:19.997Z,216.88
2023-05-05T11:41:19.980Z,214.14
2023-05-05T11:42:19.978Z,209.04
2023-05-05T11:43:20.020Z,202.96
2023-05-05T11:44:20.064Z,200.98
2023-05-05T11:45:20.126Z,198.52
2023-05-05T11:46:20.181Z,195.03
2023-05-05T11:47:20.120Z,193.32
2023-05-05T11:48:20.214Z,193.79
2023-05-05T11:49:20.159Z,187.48
2023-05-05T11:50:20.170Z,183.26
2023-05-05T11:51:20.325Z,182.66
2023-05-05T11:52:20.210Z,179.34
2023-05-05T11:53:20.231Z,177.42
2023-05-05T11:54:20.273Z,178.87
2023-05-05T11:55:20.326Z,175.64
2023-05-05T11:56:20.311Z,178.41
2023-05-05T11:57:20.330Z,179.52
2023-05-05T11:58:20.324Z,178.94
2023-05-05T11:59:20.407Z,174.84
2023-05-05T12:00:20.453Z,170.80
2023-05-05T12:01:20.423Z,174.07
2023-05-05T12:02:20.434Z,177.16
2023-05-05T12:03:20.528Z,173.37
2023-05-05T12:04:20.531Z,171.20
2023-05-05T12:05:20.687Z,170.37
2023-05-05T12:06:20.507Z,171.66
2023-05-05T12:07:20.580Z,173.81
2023-05-05T12:08:20.601Z,174.24
2023-05-05T12:09:20.616Z,172.05
2023-05-05T12:10:20.658Z,166.03
2023-05-05T12:11:20.626Z,168.68
2023-05-05T12:12:20.739Z,169.63
2023-05-05T12:13:20.752Z,164.12
2023-05-05T12:14:20.685Z,167.71
2023-05-05T12:15:21.174Z,164.32
2023-05-05T12:16:20.777Z,168.27
2023-05-05T12:17:20.776Z,166.58
2023-05-05T12:18:20.809Z,163.84
2023-05-05T12:19:20.812Z,161.23
2023-05-05T12:20:20.857Z,164.27
2023-05-05T12:21:20.844Z,161.87
2023-05-05T12:22:20.895Z,160.37
2023-05-05T12:23:20.976Z,162.11
2023-05-05T12:24:20.918Z,163.90
2023-05-05T12:25:20.936Z,159.81
2023-05-05T12:26:20.984Z,162.44
2023-05-05T12:27:20.976Z,158.79
2023-05-05T12:28:21.002Z,160.44
2023-05-05T12:29:21.025Z,161.30
2023-05-05T12:30:21.197Z,162.04
2023-05-05T12:31:21.151Z,159.55
2023-05-05T12:32:21.162Z,159.93
2023-05-05T12:33:21.106Z,153.88
2023-05-05T12:34:21.161Z,156.64
2023-05-05T12:35:21.716Z,155.99
2023-05-05T12:36:21.186Z,160.41
2023-05-05T12:37:21.207Z,156.39